Time;durP1;ratioP1;P1;durP2;ratioP2;P2;SDS_P1;SDS_P2;PMS_P1;PMS_P2;Temp;Humidity;BMP_temperature;BMP_pressure;BME280_temperature;BME280_humidity;BME280_pressure;Samples;Min_cycle;Max_cycle;Signal;HPM_P1;HPM_P2
2023/10/23 00:01:49;;;;;;;7.18;2.45;;;;;;;10.87;100.00;99551.78;12197227;19;20074;-81
2023/10/23 00:05:50;;;;;;;7.47;3.05;;;;;;;10.87;100.00;99562.81;12170924;19;20002;-82
2023/10/23 00:09:52;;;;;;;8.85;2.05;;;;;;;10.86;100.00;99561.97;12193084;19;20006;-81
2023/10/23 00:13:54;;;;;;;5.82;1.98;;;;;;;10.86;100.00;99556.47;12191663;19;20006;-81
2023/10/23 00:17:56;;;;;;;5.35;1.83;;;;;;;10.82;100.00;99559.97;12165236;19;20388;-81
2023/10/23 00:21:58;;;;;;;10.40;2.08;;;;;;;10.79;100.00;99561.31;12191610;19;20035;-81
2023/10/23 00:26:00;;;;;;;10.70;2.65;;;;;;;10.76;100.00;99567.34;12193301;19;20046;-82
2023/10/23 00:30:02;;;;;;;12.15;2.63;;;;;;;10.72;100.00;99580.00;12175828;19;20769;-81
2023/10/23 00:34:04;;;;;;;4.63;1.80;;;;;;;10.69;100.00;99564.78;12199883;19;21537;-81
2023/10/23 00:38:06;;;;;;;5.00;1.90;;;;;;;10.69;100.00;99572.22;12195261;19;20011;-81
2023/10/23 00:42:08;;;;;;;5.53;1.98;;;;;;;10.65;100.00;99571.09;12200957;19;20021;-81
2023/10/23 00:46:17;;;;;;;7.07;1.53;;;;;;;10.66;100.00;99576.34;12199991;19;20014;-81
2023/10/23 00:50:19;;;;;;;7.95;1.70;;;;;;;10.62;100.00;99572.44;12170898;19;20031;-81
2023/10/23 00:54:22;;;;;;;4.75;1.90;;;;;;;10.60;100.00;99571.03;12201061;19;20428;-81
2023/10/23 00:58:27;;;;;;;4.22;1.65;;;;;;;10.58;100.00;99581.44;12199306;19;20003;-81
2023/10/23 01:02:29;;;;;;;3.60;1.88;;;;;;;10.55;100.00;99571.78;12177417;19;20010;-81
2023/10/23 01:06:31;;;;;;;7.63;1.73;;;;;;;10.52;100.00;99571.47;12202935;19;20464;-81
2023/10/23 01:10:33;;;;;;;9.57;1.97;;;;;;;10.48;100.00;99571.97;12204070;19;20398;-81
2023/10/23 01:14:36;;;;;;;9.20;2.03;;;;;;;10.44;100.00;99559.81;12167281;19;20027;-81
2023/10/23 01:18:38;;;;;;;6.10;2.03;;;;;;;10.39;100.00;99565.22;12189136;19;20070;-81
2023/10/23 01:22:40;;;;;;;7.88;2.50;;;;;;;10.35;100.00;99572.34;12194240;19;20476;-81
2023/10/23 01:26:42;;;;;;;5.18;1.90;;;;;;;10.35;100.00;99572.34;12171898;19;20631;-80
2023/10/23 01:30:44;;;;;;;7.90;1.77;;;;;;;10.33;100.00;99566.25;12194776;19;20006;-79
2023/10/23 01:34:46;;;;;;;7.80;1.85;;;;;;;10.28;100.00;99566.19;12185336;19;19999;-79
2023/10/23 01:38:48;;;;;;;8.00;1.77;;;;;;;10.31;100.00;99559.31;12164383;19;20023;-79
2023/10/23 01:42:50;;;;;;;5.85;1.70;;;;;;;10.23;100.00;99569.69;12184158;19;20011;-80
2023/10/23 01:46:52;;;;;;;6.90;2.15;;;;;;;10.22;100.00;99564.41;12185191;19;20007;-80
2023/10/23 01:50:54;;;;;;;9.20;2.08;;;;;;;10.20;100.00;99570.19;12173412;19;20011;-80
2023/10/23 01:55:00;;;;;;;6.32;1.73;;;;;;;10.16;100.00;99580.00;12186297;19;20584;-80
2023/10/23 01:59:02;;;;;;;8.00;2.08;;;;;;;10.14;100.00;99573.09;12185481;19;20014;-80
2023/10/23 02:03:05;;;;;;;6.45;1.75;;;;;;;10.15;100.00;99574.78;12165145;19;20039;-80
2023/10/23 02:07:07;;;;;;;;;;;;;;;10.08;100.00;99569.44;12186064;19;20010;-81
2023/10/23 02:11:10;;;;;;;6.97;1.63;;;;;;;10.03;100.00;99577.63;12169980;19;19914;-81
2023/10/23 02:15:13;;;;;;;7.37;1.90;;;;;;;9.91;100.00;99572.22;12184022;19;20480;-79
2023/10/23 02:19:15;;;;;;;13.10;2.53;;;;;;;9.79;100.00;99568.72;12180022;19;20003;-79
2023/10/23 02:23:17;;;;;;;5.90;2.55;;;;;;;9.70;100.00;99575.72;12163052;19;20010;-80
2023/10/23 02:27:20;;;;;;;7.18;2.50;;;;;;;9.63;100.00;99577.78;12186363;19;20003;-81
2023/10/23 02:31:22;;;;;;;6.60;2.42;;;;;;;9.58;100.00;99573.88;12182510;19;20473;-80
2023/10/23 02:35:24;;;;;;;9.05;2.05;;;;;;;9.54;100.00;99589.19;12160365;19;20017;-80
2023/10/23 02:39:26;;;;;;;5.25;1.88;;;;;;;9.49;100.00;99586.38;12174544;19;20054;-81
2023/10/23 02:43:30;;;;;;;8.65;1.90;;;;;;;9.47;100.00;99587.72;12173703;19;20070;-79
2023/10/23 02:47:32;;;;;;;7.68;2.05;;;;;;;9.46;100.00;99580.53;12153799;19;20086;-82
2023/10/23 02:51:36;;;;;;;6.68;2.30;;;;;;;9.46;100.00;99591.53;12198705;19;20635;-79
2023/10/23 02:55:40;;;;;;;11.55;2.63;;;;;;;9.42;100.00;99588.44;12181938;19;20029;-81
2023/10/23 02:59:46;;;;;;;12.05;2.55;;;;;;;9.43;100.00;99592.88;12158086;19;20014;-81
2023/10/23 03:03:50;;;;;;;11.10;2.28;;;;;;;9.42;100.00;99590.34;12201610;19;20078;-81
2023/10/23 03:07:53;;;;;;;10.55;2.72;;;;;;;9.38;100.00;99589.19;12201939;19;20022;-78
2023/10/23 03:11:55;;;;;;;9.52;2.47;;;;;;;9.34;100.00;99586.94;12187348;19;20014;-79
2023/10/23 03:15:58;;;;;;;7.65;2.13;;;;;;;9.34;100.00;99595.19;12202650;19;20006;-80
2023/10/23 03:20:00;;;;;;;10.87;2.47;;;;;;;9.31;100.00;99589.34;12204207;19;20439;-80
2023/10/23 03:24:04;;;;;;;8.82;2.33;;;;;;;9.31;100.00;99583.84;12229817;19;19998;-79
2023/10/23 03:28:06;;;;;;;10.65;2.67;;;;;;;9.33;100.00;99587.19;12251660;19;20001;-79
2023/10/23 03:32:10;;;;;;;10.45;2.25;;;;;;;9.30;100.00;99588.50;12229039;19;20783;-79
2023/10/23 03:36:12;;;;;;;10.25;2.40;;;;;;;9.27;100.00;99585.41;12252593;19;20014;-79
2023/10/23 03:40:14;;;;;;;9.63;2.40;;;;;;;9.27;100.00;99583.50;12253090;19;20046;-78
2023/10/23 03:44:19;;;;;;;6.28;2.70;;;;;;;9.24;100.00;99585.91;12231324;19;20013;-79
2023/10/23 03:48:21;;;;;;;10.43;3.25;;;;;;;9.21;100.00;99584.50;12246236;19;20005;-78
2023/10/23 03:52:23;;;;;;;6.67;2.23;;;;;;;9.17;100.00;99582.50;12251645;19;20003;-80
2023/10/23 03:56:25;;;;;;;6.07;2.33;;;;;;;9.17;100.00;99593.50;12196521;19;20021;-81
2023/10/23 04:00:29;;;;;;;5.72;2.15;;;;;;;9.16;100.00;99591.81;12217767;19;20007;-80
2023/10/23 04:04:33;;;;;;;10.32;2.38;;;;;;;9.17;100.00;99588.81;12220432;19;20003;-80
2023/10/23 04:08:35;;;;;;;14.00;3.35;;;;;;;9.18;100.00;99582.22;12199455;19;20040;-80
2023/10/23 04:12:41;;;;;;;7.28;2.08;;;;;;;9.20;100.00;99584.75;12222043;19;20555;-80
2023/10/23 04:16:43;;;;;;;6.32;2.75;;;;;;;9.20;100.00;99582.00;12241185;19;20015;-81
2023/10/23 04:20:44;;;;;;;7.55;2.65;;;;;;;9.16;100.00;99583.56;12215626;19;20014;-80
2023/10/23 04:24:47;;;;;;;5.82;3.00;;;;;;;9.12;100.00;99566.72;12239160;19;20155;-80
2023/10/23 04:28:49;;;;;;;9.10;2.83;;;;;;;9.12;100.00;99569.47;12228078;19;20013;-80
2023/10/23 04:32:51;;;;;;;7.55;2.80;;;;;;;9.13;100.00;99573.88;12195134;19;20437;-80
2023/10/23 04:36:53;;;;;;;9.98;3.10;;;;;;;9.11;100.00;99574.13;12216611;19;20563;-81
2023/10/23 04:40:55;;;;;;;8.60;2.28;;;;;;;9.08;100.00;99566.38;12217122;19;20011;-80
2023/10/23 04:44:58;;;;;;;6.25;2.55;;;;;;;9.02;100.00;99561.88;12193096;19;20003;-80
2023/10/23 04:49:00;;;;;;;8.27;2.08;;;;;;;8.99;100.00;99567.88;12211736;19;20039;-79
2023/10/23 04:53:02;;;;;;;8.90;2.42;;;;;;;8.99;100.00;99564.28;12219032;19;20023;-80
2023/10/23 04:57:04;;;;;;;7.57;2.55;;;;;;;8.98;100.00;99557.94;12191671;19;20011;-80
2023/10/23 05:01:14;;;;;;;;;;;;;;;8.95;100.00;99561.16;12217573;19;20011;-81
2023/10/23 05:05:16;;;;;;;12.57;3.15;;;;;;;8.98;100.00;99568.94;12193497;19;19926;-80
2023/10/23 05:09:18;;;;;;;11.87;2.63;;;;;;;8.99;100.00;99565.13;12214789;19;20058;-80
2023/10/23 05:13:20;;;;;;;5.90;2.42;;;;;;;8.99;100.00;99559.63;12212232;19;20271;-81
2023/10/23 05:17:23;;;;;;;8.32;2.88;;;;;;;9.02;100.00;99552.81;12188412;19;20018;-80
2023/10/23 05:21:25;;;;;;;7.90;2.13;;;;;;;9.01;100.00;99551.97;12215377;19;20165;-81
2023/10/23 05:25:30;;;;;;;10.88;2.60;;;;;;;9.02;100.00;99564.63;12215043;19;20464;-81
2023/10/23 05:29:32;;;;;;;8.40;2.53;;;;;;;9.04;100.00;99556.13;12199156;19;20399;-81
2023/10/23 05:33:34;;;;;;;8.32;2.72;;;;;;;9.05;100.00;99563.31;12209331;19;20007;-80
2023/10/23 05:37:36;;;;;;;8.10;2.20;;;;;;;8.98;100.00;99570.84;12207952;19;20075;-79
2023/10/23 05:41:38;;;;;;;11.13;2.95;;;;;;;8.88;100.00;99579.72;12186913;19;20485;-79
2023/10/23 05:45:40;;;;;;;4.90;2.70;;;;;;;8.81;100.00;99570.81;12211514;19;20012;-80
2023/10/23 05:49:42;;;;;;;6.57;2.47;;;;;;;8.77;100.00;99580.59;12206915;19;20256;-80
2023/10/23 05:53:46;;;;;;;8.55;2.72;;;;;;;8.78;100.00;99577.63;12186185;19;20027;-80
2023/10/23 05:57:47;;;;;;;8.10;3.17;;;;;;;8.78;100.00;99574.03;12205572;19;20079;-80
2023/10/23 06:01:52;;;;;;;7.45;2.38;;;;;;;8.77;100.00;99577.84;12208283;19;20015;-79
2023/10/23 06:05:53;;;;;;;3.58;1.98;;;;;;;8.77;100.00;99583.34;12184286;19;20030;-79
2023/10/23 06:09:56;;;;;;;7.65;2.33;;;;;;;8.79;100.00;99576.53;12205981;19;20049;-79
2023/10/23 06:14:04;;;;;;;8.57;2.22;;;;;;;8.80;100.00;99578.19;12206614;19;20003;-80
2023/10/23 06:18:07;;;;;;;7.13;2.70;;;;;;;8.81;100.00;99579.06;12177972;19;20067;-80
2023/10/23 06:22:10;;;;;;;5.82;2.15;;;;;;;8.82;100.00;99580.72;12208804;19;20026;-81
2023/10/23 06:26:13;;;;;;;9.70;3.72;;;;;;;8.81;100.00;99590.03;12186168;19;20011;-81
2023/10/23 06:30:15;;;;;;;11.07;2.83;;;;;;;8.78;100.00;99582.28;12206877;19;20026;-81
2023/10/23 06:34:16;;;;;;;10.15;2.33;;;;;;;8.82;100.00;99588.94;12202970;19;20351;-81
2023/10/23 06:38:18;;;;;;;6.43;2.08;;;;;;;8.84;100.00;99586.81;12181667;19;20199;-81
2023/10/23 06:42:20;;;;;;;8.35;3.13;;;;;;;8.84;100.00;99581.31;12204203;19;20014;-81
2023/10/23 06:46:22;;;;;;;9.63;2.88;;;;;;;8.88;100.00;99586.06;12207432;19;20026;-81
2023/10/23 06:50:24;;;;;;;6.70;2.30;;;;;;;8.94;100.00;99577.91;12187940;19;20704;-81
2023/10/23 06:54:29;;;;;;;7.47;3.10;;;;;;;8.98;100.00;99579.91;12208084;19;20021;-78
2023/10/23 06:58:31;;;;;;;7.35;2.75;;;;;;;9.04;100.00;99589.09;12206235;19;20018;-78
2023/10/23 07:02:32;;;;;;;8.80;3.28;;;;;;;9.06;100.00;99581.44;12183117;19;20529;-79
2023/10/23 07:06:34;;;;;;;6.57;3.38;;;;;;;9.06;100.00;99579.53;12205601;19;20030;-79
2023/10/23 07:10:37;;;;;;;7.57;2.95;;;;;;;9.06;100.00;99578.72;12202556;19;20015;-79
2023/10/23 07:14:39;;;;;;;8.90;3.17;;;;;;;9.12;100.00;99572.22;12174600;19;20010;-79
2023/10/23 07:18:42;;;;;;;10.18;2.78;;;;;;;9.18;100.00;99571.22;12180350;19;20078;-78
2023/10/23 07:22:44;;;;;;;18.92;4.20;;;;;;;9.27;100.00;99560.66;12193442;19;20007;-80
2023/10/23 07:26:46;;;;;;;10.60;3.70;;;;;;;9.33;100.00;99556.94;12189415;19;20007;-79
2023/10/23 07:30:47;;;;;;;15.23;3.80;;;;;;;9.39;100.00;99550.44;12198237;19;20014;-79
2023/10/23 07:34:50;;;;;;;17.80;4.33;;;;;;;9.49;100.00;99545.13;12213331;19;20010;-78
2023/10/23 07:38:51;;;;;;;14.02;4.35;;;;;;;9.62;100.00;99543.97;12190667;19;20015;-79
2023/10/23 07:42:54;;;;;;;15.68;4.75;;;;;;;9.72;100.00;99551.53;12220327;19;20015;-79
2023/10/23 07:46:56;;;;;;;18.35;4.93;;;;;;;9.86;100.00;99558.38;12219465;19;20011;-78
2023/10/23 07:50:59;;;;;;;16.50;5.57;;;;;;;10.00;100.00;99551.44;12195415;19;20014;-79
2023/10/23 07:55:01;;;;;;;13.75;6.90;;;;;;;10.22;100.00;99550.63;12223575;19;20038;-78
2023/10/23 07:59:03;;;;;;;17.87;5.40;;;;;;;10.45;100.00;99538.59;12217572;19;20006;-79
2023/10/23 08:03:06;;;;;;;21.70;6.13;;;;;;;10.70;100.00;99546.34;12197653;19;20488;-78
2023/10/23 08:07:10;;;;;;;12.77;7.78;;;;;;;10.96;100.00;99544.72;12216893;19;20002;-79
2023/10/23 08:11:13;;;;;;;12.18;5.60;;;;;;;10.98;100.00;99538.94;12194061;19;20017;-79
2023/10/23 08:15:15;;;;;;;;;;;;;;;10.98;100.00;99541.72;12215521;19;20018;-79
2023/10/23 08:19:18;;;;;;;15.60;6.22;;;;;;;11.10;100.00;99529.44;12215371;19;19941;-79
2023/10/23 08:23:21;;;;;;;11.18;5.90;;;;;;;11.24;100.00;99529.81;12192576;19;20006;-79
2023/10/23 08:27:24;;;;;;;9.50;4.57;;;;;;;11.33;100.00;99521.91;12205761;19;20036;-79
2023/10/23 08:31:26;;;;;;;13.73;5.13;;;;;;;11.63;100.00;99535.16;12214501;19;20038;-78
2023/10/23 08:35:41;;;;;;;8.80;3.70;;;;;;;12.06;100.00;99522.22;12193643;19;20022;-80
2023/10/23 08:39:44;;;;;;;12.13;4.20;;;;;;;12.35;100.00;99506.09;12214329;19;20345;-79
2023/10/23 08:43:46;;;;;;;;;;;;;;;12.59;100.00;99503.72;12213325;19;20010;-79
2023/10/23 08:47:52;;;;;;;8.55;2.90;;;;;;;12.89;100.00;99511.28;12190109;19;19910;-79
2023/10/23 08:51:57;;;;;;;8.77;3.40;;;;;;;13.30;100.00;99508.63;12216007;19;20046;-79
2023/10/23 08:56:07;;;;;;;18.08;4.10;;;;;;;13.65;100.00;99513.34;12218162;19;20022;-79
2023/10/23 09:00:10;;;;;;;8.90;1.85;;;;;;;13.99;100.00;99507.22;12204530;19;20007;-79
2023/10/23 09:04:12;;;;;;;7.82;2.08;;;;;;;14.14;100.00;99515.47;12221311;19;20006;-79
2023/10/23 09:08:15;;;;;;;8.27;1.70;;;;;;;14.18;100.00;99510.19;12184642;19;20023;-79
2023/10/23 09:12:31;;;;;;;7.75;2.08;;;;;;;14.31;100.00;99498.53;12208932;19;20006;-79
2023/10/23 09:16:36;;;;;;;7.22;1.40;;;;;;;14.44;100.00;99482.41;12208881;19;20015;-79
2023/10/23 09:20:41;;;;;;;7.97;1.73;;;;;;;14.54;100.00;99483.22;12188573;19;20025;-79
2023/10/23 09:24:45;;;;;;;5.38;1.77;;;;;;;14.66;100.00;99473.75;12230454;19;20066;-79
2023/10/23 09:28:50;;;;;;;7.68;1.98;;;;;;;14.74;100.00;99470.38;12227274;19;20011;-79
2023/10/23 09:32:55;;;;;;;6.07;1.15;;;;;;;14.81;100.00;99468.09;12196108;19;20006;-79
2023/10/23 09:36:57;;;;;;;6.72;1.75;;;;;;;14.86;100.00;99467.25;12204350;19;20010;-80
2023/10/23 09:41:00;;;;;;;11.17;1.87;;;;;;;14.86;100.00;99465.31;12201708;19;20017;-79
2023/10/23 09:45:04;;;;;;;8.38;1.50;;;;;;;14.94;100.00;99478.59;12194363;19;20006;-79
2023/10/23 09:49:07;;;;;;;3.80;1.20;;;;;;;15.06;100.00;99483.78;12215594;19;20103;-79
2023/10/23 09:53:12;;;;;;;5.90;1.60;;;;;;;15.09;100.00;99491.53;12192245;19;20003;-79
2023/10/23 09:57:17;;;;;;;7.60;2.35;;;;;;;15.17;100.00;99481.75;12206573;19;20596;-80
2023/10/23 10:01:27;;;;;;;5.25;1.52;;;;;;;15.34;99.88;99479.41;12211253;19;20638;-79
2023/10/23 10:05:34;;;;;;;7.60;2.03;;;;;;;15.53;99.50;99476.78;12186889;19;20011;-79
2023/10/23 10:09:40;;;;;;;3.95;1.38;;;;;;;15.68;98.11;99470.28;12208505;19;20030;-79
2023/10/23 10:13:42;;;;;;;3.72;1.40;;;;;;;15.85;95.93;99459.53;12207566;19;20006;-80
2023/10/23 10:17:45;;;;;;;10.05;1.38;;;;;;;16.00;93.77;99455.78;12178888;19;20006;-79
2023/10/23 10:21:58;;;;;;;5.30;1.70;;;;;;;16.16;91.67;99462.00;12188165;19;20031;-79
2023/10/23 10:26:03;;;;;;;;;;;;;;;16.18;89.34;99448.63;12188002;19;20010;-80
2023/10/23 10:30:45;;;;;;;6.72;1.60;;;;;;;16.21;88.73;99442.50;12169567;19;19960;-79
2023/10/23 10:34:52;;;;;;;5.28;1.52;;;;;;;16.41;87.42;99444.19;12186011;19;21302;-80
2023/10/23 10:38:58;;;;;;;4.38;1.42;;;;;;;16.52;87.68;99439.31;12165378;19;20014;-79
2023/10/23 10:43:05;;;;;;;5.97;1.63;;;;;;;16.64;87.51;99442.50;12182546;19;20099;-80
2023/10/23 10:47:12;;;;;;;5.80;1.67;;;;;;;16.74;86.11;99434.00;12169671;19;20031;-79
2023/10/23 10:51:22;;;;;;;4.70;1.40;;;;;;;16.74;82.11;99434.00;12201029;19;20010;-79
2023/10/23 10:55:24;;;;;;;5.20;1.40;;;;;;;16.92;84.39;99426.00;12199393;19;20017;-79
2023/10/23 10:59:26;;;;;;;6.80;1.92;;;;;;;17.06;83.55;99412.97;12179070;19;20024;-78
2023/10/23 11:03:31;;;;;;;6.63;1.30;;;;;;;17.20;82.89;99413.88;12208642;19;20037;-79
2023/10/23 11:07:33;;;;;;;4.80;1.33;;;;;;;17.35;82.46;99406.38;12203150;19;20007;-79
2023/10/23 11:11:37;;;;;;;4.88;1.55;;;;;;;17.48;83.15;99400.03;12177726;19;20006;-80
2023/10/23 11:15:39;;;;;;;5.78;1.48;;;;;;;17.66;81.60;99387.97;12194929;19;20003;-79
2023/10/23 11:19:44;;;;;;;5.83;1.30;;;;;;;17.63;80.07;99371.88;12196369;19;20018;-78
2023/10/23 11:23:48;;;;;;;7.80;1.88;;;;;;;17.49;79.59;99362.66;12175697;19;20366;-80
2023/10/23 11:27:50;;;;;;;4.75;1.38;;;;;;;17.49;81.10;99362.66;12197882;19;20018;-79
2023/10/23 11:31:52;;;;;;;7.10;1.60;;;;;;;17.48;78.48;99353.47;12191787;19;20022;-79
2023/10/23 11:35:54;;;;;;;5.40;1.10;;;;;;;17.62;78.69;99347.94;12172430;19;20010;-80
2023/10/23 11:39:56;;;;;;;4.50;1.77;;;;;;;17.71;77.23;99348.88;12194232;19;20006;-80
2023/10/23 11:44:00;;;;;;;3.73;1.43;;;;;;;17.79;77.10;99341.81;12198786;19;20013;-80
2023/10/23 11:48:03;;;;;;;5.65;1.33;;;;;;;17.85;77.13;99337.78;12187721;19;20357;-80
2023/10/23 11:52:09;;;;;;;5.40;1.25;;;;;;;17.88;77.02;99331.59;12218641;19;20043;-80
2023/10/23 11:56:14;;;;;;;2.28;1.02;;;;;;;17.78;74.09;99323.41;12188912;19;20023;-80
2023/10/23 12:00:20;;;;;;;3.85;1.48;;;;;;;17.93;76.06;99322.28;12204347;19;20007;-80
2023/10/23 12:04:23;;;;;;;4.30;1.55;;;;;;;18.06;77.15;99324.25;12195435;19;20010;-80
2023/10/23 12:08:25;;;;;;;9.50;1.60;;;;;;;17.98;74.20;99317.41;12173665;19;20006;-80
2023/10/23 12:12:28;;;;;;;4.38;1.23;;;;;;;17.88;71.83;99308.47;12195727;19;20914;-80
2023/10/23 12:16:30;;;;;;;;;;;;;;;17.90;73.40;99295.03;12199456;19;20038;-79
2023/10/23 12:20:32;;;;;;;8.07;1.20;;;;;;;17.94;74.15;99296.91;12172622;19;19911;-80
2023/10/23 12:24:34;;;;;;;3.43;1.10;;;;;;;17.93;75.25;99294.41;12195378;19;20010;-80
2023/10/23 12:28:36;;;;;;;5.80;1.40;;;;;;;17.94;75.75;99288.53;12198899;19;20013;-80
2023/10/23 12:32:42;;;;;;;4.30;1.00;;;;;;;17.92;75.38;99282.44;12183287;19;20037;-80
2023/10/23 12:37:04;;;;;;;3.05;1.27;;;;;;;18.04;76.31;99273.53;12207063;19;20049;-80
2023/10/23 12:41:06;;;;;;;5.40;1.03;;;;;;;18.01;73.28;99276.94;12208561;19;20014;-80
2023/10/23 12:45:08;;;;;;;4.18;1.55;;;;;;;17.94;72.81;99260.66;12217404;19;20103;-79
2023/10/23 12:49:11;;;;;;;7.68;2.08;;;;;;;17.90;74.55;99256.81;12215764;19;20010;-79
2023/10/23 12:53:14;;;;;;;4.97;1.30;;;;;;;17.94;74.44;99237.53;12196627;19;20086;-79
2023/10/23 12:57:15;;;;;;;4.23;1.53;;;;;;;17.95;73.95;99222.44;12206991;19;20055;-79
2023/10/23 13:01:17;;;;;;;3.80;1.57;;;;;;;17.82;75.34;99209.34;12209166;19;20003;-79
2023/10/23 13:05:20;;;;;;;3.67;1.30;;;;;;;17.73;74.98;99198.94;12190773;19;20353;-79
2023/10/23 13:09:22;;;;;;;2.65;1.33;;;;;;;17.60;75.25;99185.84;12205361;19;20641;-80
2023/10/23 13:13:25;;;;;;;9.40;1.40;;;;;;;17.56;76.77;99184.81;12210285;19;20006;-80
2023/10/23 13:17:26;;;;;;;4.70;1.33;;;;;;;17.49;75.77;99185.25;12184506;19;20003;-80
2023/10/23 13:21:29;;;;;;;4.93;1.30;;;;;;;17.44;76.14;99185.34;12210976;19;20014;-80
2023/10/23 13:25:39;;;;;;;6.10;1.30;;;;;;;17.33;76.37;99163.59;12211342;19;20006;-80
2023/10/23 13:29:41;;;;;;;3.58;1.85;;;;;;;17.19;77.46;99158.88;12185561;19;20006;-80
2023/10/23 13:33:43;;;;;;;3.55;1.33;;;;;;;17.04;77.43;99162.78;12206515;19;20030;-80
2023/10/23 13:37:45;;;;;;;6.10;1.50;;;;;;;17.09;78.65;99147.91;12208672;19;20003;-80
2023/10/23 13:41:47;;;;;;;3.40;1.58;;;;;;;17.09;78.63;99145.94;12186198;19;20047;-80
2023/10/23 13:45:49;;;;;;;4.57;1.42;;;;;;;16.94;78.76;99129.56;12210142;19;19998;-80
2023/10/23 13:49:55;;;;;;;4.97;1.63;;;;;;;16.81;79.17;99134.00;12207302;19;20018;-80
2023/10/23 13:53:57;;;;;;;4.95;1.63;;;;;;;16.52;80.25;99125.06;12189875;19;20108;-80
2023/10/23 13:57:59;;;;;;;5.50;1.85;;;;;;;16.42;81.21;99120.50;12202237;19;20057;-80
2023/10/23 14:02:01;;;;;;;5.30;1.85;;;;;;;16.28;82.49;99119.66;12210064;19;20086;-80
2023/10/23 14:06:04;;;;;;;4.07;1.80;;;;;;;16.18;82.81;99106.72;12188677;19;20009;-80
2023/10/23 14:10:06;;;;;;;5.20;1.60;;;;;;;16.06;83.61;99100.81;12205226;19;20497;-80
2023/10/23 14:14:08;;;;;;;4.30;1.50;;;;;;;15.98;84.36;99093.19;12186550;19;20465;-79
2023/10/23 14:18:10;;;;;;;6.70;2.58;;;;;;;15.94;84.39;99102.13;12201475;19;20010;-80
2023/10/23 14:22:12;;;;;;;4.72;1.73;;;;;;;15.93;84.84;99103.25;12209630;19;20462;-80
2023/10/23 14:26:14;;;;;;;5.75;1.80;;;;;;;15.93;85.17;99108.81;12185925;19;20015;-80
2023/10/23 14:30:16;;;;;;;7.85;1.77;;;;;;;15.87;85.63;99107.22;12208168;19;20003;-80
2023/10/23 14:34:17;;;;;;;8.60;2.17;;;;;;;15.78;85.68;99109.03;12202105;19;20006;-80
2023/10/23 14:38:23;;;;;;;3.55;1.77;;;;;;;15.69;86.26;99103.34;12182454;19;20018;-80
2023/10/23 14:42:25;;;;;;;5.72;1.80;;;;;;;15.54;89.80;99094.41;12206192;19;20010;-79
2023/10/23 14:46:27;;;;;;;9.70;2.80;;;;;;;15.37;91.11;99103.22;12206672;19;20002;-78
2023/10/23 14:50:29;;;;;;;5.00;2.00;;;;;;;15.18;93.99;99081.00;12181831;19;20015;-79
2023/10/23 14:54:31;;;;;;;8.07;2.40;;;;;;;14.98;99.37;99068.22;12196542;19;20018;-79
2023/10/23 14:58:33;;;;;;;7.20;2.97;;;;;;;14.75;100.00;99047.69;12197120;19;20010;-80
2023/10/23 15:02:35;;;;;;;5.07;3.13;;;;;;;14.51;100.00;99034.66;12182035;19;20042;-82
2023/10/23 15:06:37;;;;;;;4.18;2.72;;;;;;;14.31;100.00;99021.84;12207268;19;20537;-81
2023/10/23 15:10:39;;;;;;;6.97;2.60;;;;;;;14.15;100.00;99012.03;12210941;19;20014;-84
2023/10/23 15:14:41;;;;;;;8.90;3.50;;;;;;;13.98;100.00;98990.34;12200946;19;20093;-81
2023/10/23 15:18:43;;;;;;;10.32;3.75;;;;;;;13.82;100.00;98986.06;12215043;19;20006;-80
2023/10/23 15:22:44;;;;;;;9.40;3.08;;;;;;;13.63;100.00;98972.13;12213866;19;19999;-81
2023/10/23 15:26:46;;;;;;;7.10;2.85;;;;;;;13.57;100.00;98965.78;12188927;19;20367;-79
2023/10/23 15:30:54;;;;;;;7.15;2.92;;;;;;;13.49;100.00;98971.94;12207809;19;20012;-83
2023/10/23 15:34:56;;;;;;;9.30;2.80;;;;;;;13.47;100.00;98976.13;12205856;19;20042;-83
2023/10/23 15:38:58;;;;;;;9.32;3.67;;;;;;;13.50;100.00;98992.97;12182565;19;20013;-81
2023/10/23 15:42:59;;;;;;;8.60;3.20;;;;;;;13.52;100.00;98982.44;12209677;19;20023;-81
2023/10/23 15:47:01;;;;;;;9.15;3.53;;;;;;;13.52;100.00;98978.84;12211362;19;20017;-82
2023/10/23 15:51:03;;;;;;;10.95;3.70;;;;;;;13.50;100.00;98958.94;12180771;19;20010;-80
2023/10/23 15:55:05;;;;;;;8.85;3.53;;;;;;;13.40;100.00;98952.38;12202120;19;20471;-80
2023/10/23 15:59:07;;;;;;;8.60;3.70;;;;;;;13.35;100.00;98938.56;12180561;19;20018;-82
2023/10/23 16:03:09;;;;;;;6.33;3.47;;;;;;;13.23;100.00;98936.13;12203769;19;20018;-82
2023/10/23 16:07:11;;;;;;;9.47;4.23;;;;;;;13.15;100.00;98928.47;12219415;19;20108;-82
2023/10/23 16:11:13;;;;;;;14.25;4.35;;;;;;;13.13;100.00;98918.81;12198678;19;20006;-83
2023/10/23 16:15:18;;;;;;;8.65;4.88;;;;;;;13.11;100.00;98913.56;12225755;19;20006;-82
2023/10/23 16:19:20;;;;;;;6.97;3.90;;;;;;;13.09;100.00;98907.50;12231545;19;20014;-82
2023/10/23 16:23:22;;;;;;;8.10;4.27;;;;;;;13.12;100.00;98906.09;12204493;19;20086;-81
2023/10/23 16:27:23;;;;;;;7.80;3.83;;;;;;;13.11;100.00;98901.66;12220822;19;20003;-82
2023/10/23 16:31:25;;;;;;;6.75;3.58;;;;;;;13.11;100.00;98909.97;12219144;19;20014;-80
2023/10/23 16:35:28;;;;;;;7.13;5.07;;;;;;;13.12;100.00;98906.09;12192064;19;20003;-81
2023/10/23 16:39:30;;;;;;;8.88;3.63;;;;;;;13.15;100.00;98911.88;12210196;19;20007;-81
2023/10/23 16:43:32;;;;;;;10.57;3.83;;;;;;;13.17;100.00;98920.69;12212083;19;20007;-81
2023/10/23 16:47:34;;;;;;;7.03;3.67;;;;;;;13.14;100.00;98937.88;12189465;19;20027;-81
2023/10/23 16:51:38;;;;;;;9.02;4.15;;;;;;;13.19;100.00;98931.47;12210842;19;20029;-80
2023/10/23 16:55:40;;;;;;;10.07;4.32;;;;;;;13.25;100.00;98915.69;12211647;19;20469;-81
2023/10/23 16:59:46;;;;;;;9.25;3.97;;;;;;;13.28;100.00;98915.13;12192725;19;20014;-82
2023/10/23 17:03:48;;;;;;;6.85;3.85;;;;;;;13.18;100.00;98935.38;12218414;19;20006;-83
2023/10/23 17:07:51;;;;;;;8.98;4.57;;;;;;;13.22;100.00;98950.28;12214179;19;20030;-81
2023/10/23 17:11:55;;;;;;;7.03;3.40;;;;;;;13.26;100.00;98954.13;12193581;19;20028;-82
2023/10/23 17:15:57;;;;;;;12.47;4.73;;;;;;;13.26;100.00;98939.47;12216581;19;20017;-83
2023/10/23 17:19:58;;;;;;;9.15;4.10;;;;;;;13.22;100.00;98959.38;12219470;19;20011;-82
2023/10/23 17:24:00;;;;;;;6.25;4.18;;;;;;;13.20;100.00;98982.91;12197794;19;20141;-84
2023/10/23 17:28:02;;;;;;;10.10;4.63;;;;;;;13.19;100.00;98995.94;12212784;19;20003;-85
2023/10/23 17:32:08;;;;;;;;;;;;;;;13.15;100.00;99005.94;12216727;19;20010;-85
2023/10/23 17:36:10;;;;;;;15.63;6.70;;;;;;;13.14;100.00;99034.69;12192013;19;19977;-84
2023/10/23 17:40:15;;;;;;;23.70;14.20;;;;;;;13.17;100.00;99059.00;12216755;19;20014;-85
2023/10/23 17:44:17;;;;;;;16.02;8.13;;;;;;;13.18;100.00;99082.81;12195537;19;20017;-85
2023/10/23 17:48:20;;;;;;;18.75;10.00;;;;;;;13.18;100.00;99077.28;12214235;19;20002;-84
2023/10/23 17:52:22;;;;;;;12.43;7.97;;;;;;;13.22;100.00;99067.28;12216503;19;20030;-83
2023/10/23 17:56:25;;;;;;;29.60;16.47;;;;;;;13.16;100.00;99024.16;12195596;19;20010;-83
2023/10/23 18:00:28;;;;;;;23.10;13.98;;;;;;;13.11;100.00;98992.94;12219370;19;20287;-82
2023/10/23 18:04:30;;;;;;;20.08;7.00;;;;;;;13.11;100.00;99017.84;12221527;19;20014;-85
2023/10/23 18:08:36;;;;;;;14.30;6.47;;;;;;;13.05;100.00;99039.16;12197162;19;20009;-84
2023/10/23 18:12:39;;;;;;;13.57;6.57;;;;;;;13.02;100.00;99023.13;12215000;19;20019;-84
2023/10/23 18:16:41;;;;;;;12.68;6.28;;;;;;;13.05;100.00;99017.03;12213802;19;20497;-84
2023/10/23 18:20:43;;;;;;;9.68;4.72;;;;;;;13.08;100.00;98993.53;12198982;19;20026;-85
2023/10/23 18:24:49;;;;;;;19.80;11.50;;;;;;;13.09;100.00;98996.00;12233131;19;20018;-86
2023/10/23 18:28:51;;;;;;;15.60;9.50;;;;;;;13.07;100.00;99025.88;12229052;19;20007;-85
2023/10/23 18:32:53;;;;;;;16.63;8.87;;;;;;;13.00;100.00;99019.84;12189024;19;20491;-84
2023/10/23 18:36:57;;;;;;;16.55;8.93;;;;;;;13.03;100.00;99010.13;12217128;19;20021;-85
2023/10/23 18:40:59;;;;;;;16.85;8.25;;;;;;;13.04;100.00;99009.88;12217259;19;20026;-85
2023/10/23 18:45:04;;;;;;;32.95;21.73;;;;;;;13.05;100.00;99005.97;12183608;19;20010;-85